Flight Track Log - Related Links

Times and Time Zones

All times are in EDT time to prevent confusion due to time zone crossing. See the ASA603 flight status page for this flight to view local times or setup timezone preferences in your user account.

Time Position Orientation Groundspeed Altitude Reporting Facility
EDT Latitude Longitude Course Direction KTS MPH feet Rate Location/Type
Sun 09:59:24 AM 36.0761 -115.1789 262° West 188 216 3,100  Level Los Angeles Center
Sun 10:00:19 AM 36.0689 -115.2450 262° West 241 277 5,000 1,811 Climbing Los Angeles Center
Sun 10:01:10 AM 36.0206 -115.2772 208° Southwest 260 299 6,300 2,196 Climbing Los Angeles Center
Sun 10:02:11 AM 35.9594 -115.3233 211° Southwest 272 313 9,100 2,410 Climbing Los Angeles Center
Sun 10:03:12 AM 35.9661 -115.4236 275° West 297 342 11,200 2,115 Climbing Los Angeles Center
Sun 10:04:13 AM 36.0119 -115.5275 299° West 332 382 13,400 2,361 Climbing Los Angeles Center
Sun 10:05:14 AM 36.0706 -115.6517 300° West 381 438 16,000 2,628 Climbing Los Angeles Center
Sun 10:06:14 AM 36.1244 -115.7700 299° West 393 452 18,700 2,430 Climbing Los Angeles Center
Sun 10:07:15 AM 36.1789 -115.8900 299° West 401 461 20,900 2,066 Climbing Los Angeles Center
Sun 10:08:16 AM 36.2350 -116.0131 300° West 410 472 22,900 1,721 Climbing Los Angeles Center
Sun 10:09:17 AM 36.2872 -116.1242 300° West 419 482 24,400 1,623 Climbing Los Angeles Center
Sun 10:10:18 AM 36.3658 -116.2394 310° West 433 498 26,200 1,574 Climbing Los Angeles Center
Sun 10:11:19 AM 36.4633 -116.3361 321° Northwest 447 514 27,600 1,377 Climbing Los Angeles Center
Sun 10:12:20 AM 36.5794 -116.4522 321° Northwest 453 521 29,000 1,377 Climbing Los Angeles Center
Sun 10:13:21 AM 36.6803 -116.5525 321° Northwest 460 529 30,400 1,415 Climbing Los Angeles Center
Sun 10:14:23 AM 36.7789 -116.6536 321° Northwest 459 528 31,900 1,377 Climbing Los Angeles Center
Sun 10:15:23 AM 36.8758 -116.7531 321° Northwest 453 521 33,200 1,190 Climbing Los Angeles Center
Sun 10:16:24 AM 36.9736 -116.8511 321° Northwest 451 519 34,300 1,009 Climbing Los Angeles Center
Sun 10:17:10 AM 37.0506 -116.9306 321° Northwest 450 518 35,000 906 Climbing Oakland Center
Sun 10:18:10 AM 37.1581 -117.0117 329° Northwest 458 527 35,900 789 Climbing Oakland Center
Sun 10:18:26 AM 37.1806 -117.0272 331° Northwest 454 522 36,000 78 Climbing Los Angeles Center
Sun 10:19:27 AM 37.2978 -117.0900 337° Northwest 458 527 36,000  Level Los Angeles Center
Sun 10:20:11 AM 37.3906 -117.1428 336° Northwest 455 524 36,000  Level Oakland Center
Sun 10:21:12 AM 37.5050 -117.2081 336° Northwest 451 519 36,000  Level Oakland Center
Sun 10:22:13 AM 37.6189 -117.2728 336° Northwest 448 516 36,000  Level Oakland Center
Sun 10:22:31 AM 37.6425 -117.2856 337° Northwest 449 517 36,000  Level Los Angeles Center
Sun 10:23:32 AM 37.7575 -117.3511 336° Northwest 450 518 36,000  Level Los Angeles Center
Sun 10:24:14 AM 37.8489 -117.4033 336° Northwest 449 517 36,000  Level Oakland Center
Sun 10:25:14 AM 37.9642 -117.4694 336° Northwest 449 517 36,000  Level Oakland Center
Sun 10:26:15 AM 38.0792 -117.5358 336° Northwest 448 516 36,000  Level Oakland Center
Sun 10:27:16 AM 38.1936 -117.6022 335° Northwest 445 512 36,000  Level Oakland Center
Sun 10:28:16 AM 38.3081 -117.6686 336° Northwest 447 514 36,000  Level Oakland Center
Sun 10:29:17 AM 38.4239 -117.7344 336° Northwest 452 520 36,000  Level Oakland Center
Sun 10:30:17 AM 38.5397 -117.8042 335° Northwest 456 525 36,000  Level Oakland Center
Sun 10:31:18 AM 38.6575 -117.8733 335° Northwest 456 525 36,000  Level Oakland Center
Sun 10:32:19 AM 38.7747 -117.9414 336° Northwest 462 532 36,000  Level Oakland Center
Sun 10:33:19 AM 38.8922 -118.0119 335° Northwest 466 536 36,000  Level Oakland Center
Sun 10:34:20 AM 39.0094 -118.0806 336° Northwest 464 534 36,000  Level Oakland Center
Sun 10:35:21 AM 39.1264 -118.1517 335° Northwest 464 534 36,000  Level Oakland Center
Sun 10:36:22 AM 39.2422 -118.2214 335° Northwest 463 533 36,000  Level Oakland Center
Sun 10:37:22 AM 39.3567 -118.2897 335° Northwest 459 528 36,000  Level Oakland Center
Sun 10:38:23 AM 39.4711 -118.3594 335° Northwest 460 529 36,000  Level Oakland Center
Sun 10:39:24 AM 39.5847 -118.4261 336° Northwest 456 525 36,000  Level Oakland Center
Sun 10:40:24 AM 39.6972 -118.4961 334° Northwest 454 522 36,000  Level Oakland Center
Sun 10:41:25 AM 39.8128 -118.5661 335° Northwest 460 529 36,000  Level Oakland Center
Sun 10:42:26 AM 39.9519 -118.6503 335° Northwest 462 532 36,000  Level Oakland Center
Sun 10:43:27 AM 40.0658 -118.7231 334° Northwest 458 527 36,000  Level Oakland Center
Sun 10:44:27 AM 40.1828 -118.7964 334° Northwest 466 536 36,000  Level Oakland Center
Sun 10:45:28 AM 40.2964 -118.8658 335° Northwest 453 521 36,000  Level Oakland Center
Sun 10:46:29 AM 40.4100 -118.9375 334° Northwest 454 522 36,000  Level Oakland Center
Sun 10:47:30 AM 40.5250 -119.0075 335° Northwest 454 522 36,000  Level Oakland Center
Sun 10:48:30 AM 40.6389 -119.0797 334° Northwest 455 524 36,000  Level Oakland Center
Sun 10:49:31 AM 40.7525 -119.1522 334° Northwest 454 522 36,000  Level Oakland Center
Sun 10:50:32 AM 40.8664 -119.2239 335° Northwest 453 521 36,000  Level Oakland Center
Sun 10:51:33 AM 40.9764 -119.2953 334° Northwest 457 526 36,000  Level Oakland Center
Sun 10:52:33 AM 41.1067 -119.3742 335° Northwest 461 531 36,000  Level Oakland Center
Sun 10:53:12 AM 41.1775 -119.4222 333° Northwest 459 528 36,000  Level Seattle Center
Sun 10:54:12 AM 41.2906 -119.4964 334° Northwest 455 524 36,000  Level Seattle Center
Sun 10:55:13 AM 41.4042 -119.5686 335° Northwest 453 521 36,000  Level Seattle Center
Sun 10:56:14 AM 41.5175 -119.6425 334° Northwest 454 522 36,000  Level Seattle Center
Sun 10:57:14 AM 41.6367 -119.7128 336° Northwest 464 534 36,000  Level Seattle Center
Sun 10:58:15 AM 41.7469 -119.7886 333° Northwest 452 520 36,000  Level Seattle Center
Sun 10:59:16 AM 41.8603 -119.8639 334° Northwest 454 522 36,000  Level Seattle Center
Sun 11:00:16 AM 41.9733 -119.9378 334° Northwest 453 521 36,000  Level Seattle Center
Sun 11:01:17 AM 42.0892 -120.0114 335° Northwest 459 528 36,000  Level Seattle Center
Sun 11:02:17 AM 42.2011 -120.0864 334° Northwest 451 519 36,000  Level Seattle Center
Sun 11:03:18 AM 42.3164 -120.1628 334° Northwest 461 531 36,000  Level Seattle Center
Sun 11:04:19 AM 42.4306 -120.2378 334° Northwest 459 528 36,000  Level Seattle Center
Sun 11:05:19 AM 42.5422 -120.3125 334° Northwest 452 520 36,000  Level Seattle Center
Sun 11:06:20 AM 42.6564 -120.3883 334° Northwest 457 526 36,000  Level Seattle Center
Sun 11:07:20 AM 42.7683 -120.4658 333° Northwest 454 522 36,000  Level Seattle Center
Sun 11:08:21 AM 42.8789 -120.5406 334° Northwest 447 514 36,000  Level Seattle Center
Sun 11:09:22 AM 43.0133 -120.6306 334° Northwest 448 516 36,000  Level Seattle Center
Sun 11:10:22 AM 43.1250 -120.7056 334° Northwest 448 516 36,000  Level Seattle Center
Sun 11:11:23 AM 43.2392 -120.7839 333° Northwest 457 526 36,000  Level Seattle Center
Sun 11:12:24 AM 43.3544 -120.8617 334° Northwest 461 531 36,000  Level Seattle Center
Sun 11:13:24 AM 43.4683 -120.9411 333° Northwest 461 531 36,000  Level Seattle Center
Sun 11:14:25 AM 43.5742 -121.0131 334° Northwest 460 529 36,000  Level Seattle Center
Sun 11:15:26 AM 43.6889 -121.0936 333° Northwest 462 532 36,000  Level Seattle Center
Sun 11:16:26 AM 43.8133 -121.1839 332° Northwest 467 537 36,000  Level Seattle Center
Sun 11:17:27 AM 43.9175 -121.2561 333° Northwest 456 525 36,000  Level Seattle Center
Sun 11:18:28 AM 44.0289 -121.3342 333° Northwest 450 518 36,000  Level Seattle Center
Sun 11:19:28 AM 44.1389 -121.4122 333° Northwest 444 511 36,000  Level Seattle Center
Sun 11:20:29 AM 44.2461 -121.4883 333° Northwest 434 499 36,000  Level Seattle Center
Sun 11:21:30 AM 44.3744 -121.5794 333° Northwest 430 495 36,000  Level Seattle Center
Sun 11:22:30 AM 44.4825 -121.6578 333° Northwest 435 501 36,000  Level Seattle Center
Sun 11:23:31 AM 44.5906 -121.7353 333° Northwest 435 501 36,000  Level Seattle Center
Sun 11:24:31 AM 44.6967 -121.8125 333° Northwest 431 496 36,000  Level Seattle Center
Sun 11:25:32 AM 44.8031 -121.8886 333° Northwest 429 494 36,000  Level Seattle Center
Sun 11:26:33 AM 44.9078 -121.9667 332° Northwest 428 493 36,000  Level Seattle Center
Sun 11:27:33 AM 45.0119 -122.0444 332° Northwest 428 493 36,000  Level Seattle Center
Sun 11:28:34 AM 45.1169 -122.1219 332° Northwest 428 493 36,000  Level Seattle Center
Sun 11:29:35 AM 45.2228 -122.1992 333° Northwest 430 495 36,000  Level Seattle Center
Sun 11:30:35 AM 45.3267 -122.2756 333° Northwest 426 490 36,000 -198 Level Seattle Center
Sun 11:31:36 AM 45.4331 -122.3544 333° Northwest 430 495 35,600 -639 Descending Seattle Center
Sun 11:32:37 AM 45.5383 -122.4328 332° Northwest 431 496 34,700 -942 Descending Seattle Center
Sun 11:33:37 AM 45.6428 -122.5119 332° Northwest 429 494 33,700 -992 Descending Seattle Center
Sun 11:34:38 AM 45.7506 -122.5892 333° Northwest 433 498 32,700 -992 Descending Seattle Center
Sun 11:35:38 AM 45.8633 -122.6178 350° North 422 486 31,700 -1,537 Descending Seattle Center
Sun 11:36:39 AM 45.9744 -122.6497 349° North 412 474 29,600 -2,311 Descending Seattle Center
Sun 11:37:40 AM 46.1028 -122.6806 351° North 394 453 27,000 -2,213 Descending Seattle Center
Sun 11:38:41 AM 46.2008 -122.7006 352° North 384 442 25,100 -1,934 Descending Seattle Center
Sun 11:39:41 AM 46.3017 -122.7206 352° North 373 429 23,100 -1,983 Descending Seattle Center
Sun 11:40:42 AM 46.3986 -122.7214 360° North 356 410 21,100 -1,918 Descending Seattle Center
Sun 11:41:43 AM 46.4928 -122.7172 North 343 395 19,200 -1,884 Descending Seattle Center
Sun 11:42:43 AM 46.5883 -122.7136 North 348 400 17,300 -2,000 Descending Seattle Center
Sun 11:43:25 AM 46.6636 -122.7097 North 346 398 15,800 -1,967 Descending Seattle Center
Sun 11:43:44 AM 46.6825 -122.7089 North 342 394 15,300 -2,100 Descending Seattle Center
Sun 11:44:25 AM 46.7622 -122.7053 North 335 386 13,700 -2,164 Descending Seattle Center
Sun 11:44:45 AM 46.7914 -122.7042 North 332 382 13,100 -1,701 Descending Seattle Center
Sun 11:45:32 AM 46.8478 -122.6658 25° Northeast 303 349 11,800 -1,444 Descending Seattle Center
Sun 11:46:33 AM 46.9067 -122.5825 44° Northeast 289 333 10,500 -1,180 Descending Seattle Center
Sun 11:47:34 AM 46.9617 -122.5106 42° Northeast 257 296 9,400 -1,388 Descending Seattle Center
Sun 11:48:34 AM 47.0242 -122.4506 33° Northeast 257 296 7,700 -1,623 Descending Seattle Center
Sun 11:49:36 AM 47.0936 -122.4094 22° Northeast 269 310 6,100 -1,289 Descending Seattle Center
Sun 11:50:49 AM 47.1739 -122.3597 23° Northeast 255 293 4,800 -945 Descending Seattle Center
Sun 11:51:43 AM 47.2203 -122.3306 23° Northeast 213 245 4,100 -793 Descending Seattle Center
Sun 11:52:50 AM 47.2869 -122.3133 10° North 219 252 3,200 -938 Descending Seattle Center
Sun 11:53:51 AM 47.3442 -122.3114 North 203 234 2,100 -931 Descending Seattle Center
Sun 11:54:46 AM 47.3844 -122.3122 359° North 153 176 1,400 -787 Descending Seattle Center
Sun 11:55:53 AM 47.4297 -122.3117 360° North 138 159 500 -516 Descending Seattle Center
Sun 11:56:54 AM 47.4614 -122.3114 360° North 138 159 300 -197 Descending Seattle Center

Login

Don't have an account? Register now (free) for customized features, flight alerts, and more!